Time;durP1;ratioP1;P1;durP2;ratioP2;P2;SDS_P1;SDS_P2;PMS_P1;PMS_P2;Temp;Humidity;BMP_temperature;BMP_pressure;BME280_temperature;BME280_humidity;BME280_pressure;Samples;Min_cycle;Max_cycle;Signal;HPM_P1;HPM_P2
2023/10/12 00:01:57;;;;;;;;;;;9.10;83.10;;;;;;4931372;29;19922;-75
2023/10/12 00:04:35;;;;;;;;;;;9.10;83.10;;;;;;4934451;29;20283;-76
2023/10/12 00:07:10;;;;;;;;;;;9.10;83.20;;;;;;4934372;29;19965;-75
2023/10/12 00:09:36;;;;;;;;;;;9.00;83.10;;;;;;4933215;29;19919;-75
2023/10/12 00:12:07;;;;;;;;;;;9.10;83.30;;;;;;4934268;29;19922;-75
2023/10/12 00:14:34;;;;;;;;;;;9.00;83.30;;;;;;4934287;29;19918;-75
2023/10/12 00:16:59;;;;;;;;;;;9.00;83.20;;;;;;4934246;29;19919;-75
2023/10/12 00:19:25;;;;;;;;;;;9.00;83.20;;;;;;4933960;29;19925;-76
2023/10/12 00:21:56;;;;;;;;;;;9.00;83.20;;;;;;4934323;29;19915;-75
2023/10/12 00:24:22;;;;;;;;;;;9.00;83.20;;;;;;4934097;29;20268;-76
2023/10/12 00:26:49;;;;;;;;;;;9.00;83.20;;;;;;4934088;29;20273;-76
2023/10/12 00:29:15;;;;;;;;;;;9.00;83.10;;;;;;4934063;29;20002;-75
2023/10/12 00:31:43;;;;;;;;;;;9.00;83.20;;;;;;4934002;29;20011;-76
2023/10/12 00:34:10;;;;;;;;;;;8.90;83.20;;;;;;4932684;29;20086;-75
2023/10/12 00:36:45;;;;;;;;;;;9.00;83.10;;;;;;4933973;29;19988;-75
2023/10/12 00:39:11;;;;;;;;;;;8.90;83.10;;;;;;4932466;29;20343;-75
2023/10/12 00:41:39;;;;;;;;;;;8.90;83.10;;;;;;4934084;29;19950;-75
2023/10/12 00:44:10;;;;;;;;;;;8.90;83.10;;;;;;4932614;29;19985;-75
2023/10/12 00:49:21;;;;;;;;;;;8.90;82.60;;;;;;4933744;29;20009;-75
2023/10/12 00:51:51;;;;;;;;;;;8.90;82.50;;;;;;4933738;29;19911;-75
2023/10/12 00:54:26;;;;;;;;;;;8.90;82.60;;;;;;4933950;29;19911;-75
2023/10/12 00:56:56;;;;;;;;;;;8.90;82.80;;;;;;4933806;29;19922;-75
2023/10/12 00:59:22;;;;;;;;;;;8.90;82.90;;;;;;4933250;29;19927;-75
2023/10/12 01:01:50;;;;;;;;;;;8.90;82.90;;;;;;4933435;29;19926;-75
2023/10/12 01:04:16;;;;;;;;;;;9.00;82.90;;;;;;4933507;29;19958;-75
2023/10/12 01:06:44;;;;;;;;;;;9.00;82.90;;;;;;4933721;29;19911;-75
2023/10/12 01:09:19;;;;;;;;;;;8.90;82.80;;;;;;4933246;29;20295;-75
2023/10/12 01:11:58;;;;;;;;;;;8.90;82.80;;;;;;4933216;29;20042;-75
2023/10/12 01:14:26;;;;;;;;;;;8.90;82.80;;;;;;4931830;29;19914;-75
2023/10/12 01:16:58;;;;;;;;;;;8.80;82.70;;;;;;4933204;29;19921;-75
2023/10/12 01:19:44;;;;;;;;;;;8.80;82.70;;;;;;4933042;29;19919;-75
2023/10/12 01:22:13;;;;;;;;;;;8.80;82.70;;;;;;4932051;29;20344;-75
2023/10/12 01:24:47;;;;;;;;;;;8.70;82.70;;;;;;4933076;29;20002;-75
2023/10/12 01:27:13;;;;;;;;;;;8.60;82.70;;;;;;4933047;29;19918;-75
2023/10/12 01:29:40;;;;;;;;;;;8.60;82.70;;;;;;4932915;29;19922;-75
2023/10/12 01:34:37;;;;;;;;;;;8.50;82.50;;;;;;4932899;29;19915;-75
2023/10/12 01:37:03;;;;;;;;;;;8.40;82.50;;;;;;4931489;29;19941;-76
2023/10/12 01:39:28;;;;;;;;;;;8.40;82.50;;;;;;4932701;29;19915;-75
2023/10/12 01:41:55;;;;;;;;;;;8.30;82.50;;;;;;4932701;29;19926;-76
2023/10/12 01:44:22;;;;;;;;;;;8.30;82.70;;;;;;4932605;29;19915;-75
2023/10/12 01:46:49;;;;;;;;;;;8.30;82.70;;;;;;4932833;29;19919;-75
2023/10/12 01:49:17;;;;;;;;;;;8.30;82.60;;;;;;4932480;29;20009;-75
2023/10/12 01:51:45;;;;;;;;;;;8.30;82.50;;;;;;4932537;29;19911;-75
2023/10/12 01:54:22;;;;;;;;;;;8.30;82.50;;;;;;4933067;29;19923;-75
2023/10/12 01:56:55;;;;;;;;;;;8.40;82.50;;;;;;4932513;29;19911;-76
2023/10/12 01:59:21;;;;;;;;;;;8.30;82.50;;;;;;4932146;29;19930;-75
2023/10/12 02:01:53;;;;;;;;;;;8.40;83.10;;;;;;4932391;29;19915;-75
2023/10/12 02:04:21;;;;;;;;;;;8.40;82.60;;;;;;4932404;29;19934;-75
2023/10/12 02:06:47;;;;;;;;;;;8.50;82.60;;;;;;4930905;29;19911;-75
2023/10/12 02:09:15;;;;;;;;;;;8.50;82.50;;;;;;4932199;29;19925;-75
2023/10/12 02:11:45;;;;;;;;;;;8.60;82.60;;;;;;4932172;29;19911;-75
2023/10/12 02:14:12;;;;;;;;;;;8.60;82.50;;;;;;4932055;29;20001;-75
2023/10/12 02:16:38;;;;;;;;;;;8.60;82.40;;;;;;4932006;29;20005;-75
2023/10/12 02:19:04;;;;;;;;;;;8.60;82.30;;;;;;4931948;29;20010;-75
2023/10/12 02:21:33;;;;;;;;;;;8.70;82.40;;;;;;4932195;29;20278;-75
2023/10/12 02:24:14;;;;;;;;;;;8.70;82.40;;;;;;4931942;29;19946;-75
2023/10/12 02:29:17;;;;;;;;;;;8.90;82.60;;;;;;4931825;29;19958;-75
2023/10/12 02:34:28;;;;;;;;;;;8.90;82.70;;;;;;4932087;29;19946;-75
2023/10/12 02:39:40;;;;;;;;;;;9.10;82.70;;;;;;4931727;29;19915;-75
2023/10/12 02:45:33;;;;;;;;;;;9.20;82.50;;;;;;4931860;29;19914;-75
2023/10/12 02:47:30;;;;;;;;;;;9.20;82.50;;;;;;4927500;29;19911;-75
2023/10/12 02:50:01;;;;;;;;;;;9.20;82.60;;;;;;4930164;29;20280;-74
2023/10/12 02:52:30;;;;;;;;;;;9.30;82.60;;;;;;4931533;29;19933;-74
2023/10/12 02:54:56;;;;;;;;;;;9.30;82.60;;;;;;4931415;29;20290;-75
2023/10/12 02:57:24;;;;;;;;;;;9.30;82.40;;;;;;4930067;29;20006;-74
2023/10/12 02:59:57;;;;;;;;;;;9.30;82.40;;;;;;4931370;29;20060;-76
2023/10/12 03:02:31;;;;;;;;;;;9.30;82.40;;;;;;4931284;29;19914;-75
2023/10/12 03:05:07;;;;;;;;;;;9.20;82.30;;;;;;4931184;29;19919;-75
2023/10/12 03:07:35;;;;;;;;;;;9.10;82.40;;;;;;4931330;29;19921;-75
2023/10/12 03:10:06;;;;;;;;;;;9.00;82.40;;;;;;4931115;29;19915;-75
2023/10/12 03:12:35;;;;;;;;;;;9.00;82.40;;;;;;4931465;29;20005;-75
2023/10/12 03:15:11;;;;;;;;;;;9.00;82.30;;;;;;4931111;29;19911;-75
2023/10/12 03:17:37;;;;;;;;;;;8.90;82.30;;;;;;4929684;29;19915;-75
2023/10/12 03:20:17;;;;;;;;;;;8.90;82.20;;;;;;4930923;29;19922;-75
2023/10/12 03:22:44;;;;;;;;;;;8.80;82.10;;;;;;4931059;29;19910;-75
2023/10/12 03:27:54;;;;;;;;;;;8.70;82.30;;;;;;4931714;29;20059;-75
2023/10/12 03:30:34;;;;;;;;;;;8.60;82.40;;;;;;4931013;29;20392;-75
2023/10/12 03:33:03;;;;;;;;;;;8.60;82.40;;;;;;4930976;29;19989;-75
2023/10/12 03:35:34;;;;;;;;;;;8.60;82.60;;;;;;4930868;29;19920;-75
2023/10/12 03:38:12;;;;;;;;;;;8.60;82.70;;;;;;4930224;29;20002;-75
2023/10/12 03:40:50;;;;;;;;;;;8.60;82.70;;;;;;4930715;29;20443;-75
2023/10/12 03:43:28;;;;;;;;;;;8.60;82.70;;;;;;4931217;29;19939;-75
2023/10/12 03:53:45;;;;;;;;;;;8.50;82.70;;;;;;4930747;29;20367;-75
2023/10/12 03:56:14;;;;;;;;;;;8.40;83.10;;;;;;4930801;29;20245;-74
2023/10/12 03:58:47;;;;;;;;;;;8.40;82.50;;;;;;4930282;29;20417;-74
2023/10/12 04:01:23;;;;;;;;;;;8.30;82.50;;;;;;4929038;29;19918;-74
2023/10/12 04:03:58;;;;;;;;;;;8.20;82.50;;;;;;4930626;29;20383;-74
2023/10/12 04:06:24;;;;;;;;;;;8.20;82.60;;;;;;4929438;29;20443;-74
2023/10/12 04:08:54;;;;;;;;;;;8.10;82.60;;;;;;4930658;29;19939;-74
2023/10/12 04:16:57;;;;;;;;;;;8.00;82.60;;;;;;4930957;29;20283;-75
2023/10/12 04:19:32;;;;;;;;;;;8.00;82.60;;;;;;4930395;29;19941;-75
2023/10/12 04:24:56;;;;;;;;;;;8.00;82.60;;;;;;4921812;29;20319;-75
2023/10/12 04:27:38;;;;;;;;;;;7.90;82.30;;;;;;4930380;29;20030;-75
2023/10/12 04:32:53;;;;;;;;;;;7.90;82.50;;;;;;4930674;29;20284;-75
2023/10/12 04:36:09;;;;;;;;;;;7.90;82.30;;;;;;4930364;29;19954;-74
2023/10/12 04:38:28;;;;;;;;;;;7.80;82.30;;;;;;4924809;29;20028;-74
2023/10/12 04:41:23;;;;;;;;;;;7.80;82.30;;;;;;4929186;29;19970;-75
2023/10/12 04:44:25;;;;;;;;;;;7.80;82.20;;;;;;4930351;29;20271;-75
2023/10/12 04:46:51;;;;;;;;;;;7.80;82.10;;;;;;4930058;29;19935;-75
2023/10/12 04:51:49;;;;;;;;;;;7.70;82.00;;;;;;4933734;29;19910;-75
2023/10/12 04:54:23;;;;;;;;;;;7.60;82.10;;;;;;4933596;29;20001;-75
2023/10/12 04:57:26;;;;;;;;;;;7.60;82.20;;;;;;4933485;29;20142;-75
2023/10/12 04:59:50;;;;;;;;;;;7.60;82.20;;;;;;4931445;29;20011;-75
2023/10/12 05:02:28;;;;;;;;;;;7.50;82.10;;;;;;4933307;29;19919;-76
2023/10/12 05:09:51;;;;;;;;;;;7.40;82.20;;;;;;4933272;29;20023;-75
2023/10/12 05:12:17;;;;;;;;;;;7.30;82.20;;;;;;4933224;29;20393;-75
2023/10/12 05:14:42;;;;;;;;;;;7.30;82.30;;;;;;4933346;29;19946;-75
2023/10/12 05:17:08;;;;;;;;;;;7.30;82.30;;;;;;4932880;29;19919;-75
2023/10/12 05:19:34;;;;;;;;;;;7.20;82.40;;;;;;4932866;29;20018;-75
2023/10/12 05:21:59;;;;;;;;;;;7.20;82.30;;;;;;4933184;29;19923;-74
2023/10/12 05:24:25;;;;;;;;;;;7.20;82.30;;;;;;4932972;29;19915;-75
2023/10/12 05:27:09;;;;;;;;;;;7.10;82.30;;;;;;4932969;29;19921;-75
2023/10/12 05:29:38;;;;;;;;;;;7.10;82.20;;;;;;4932948;29;19914;-74
2023/10/12 05:32:18;;;;;;;;;;;7.20;82.10;;;;;;4932582;29;20022;-74
2023/10/12 05:34:45;;;;;;;;;;;7.20;82.00;;;;;;4932937;29;20375;-75
2023/10/12 05:37:26;;;;;;;;;;;7.10;81.90;;;;;;4932620;29;19922;-75
2023/10/12 05:39:56;;;;;;;;;;;7.10;81.90;;;;;;4931322;29;19969;-75
2023/10/12 05:42:25;;;;;;;;;;;7.10;81.90;;;;;;4932571;29;19915;-75
2023/10/12 05:44:51;;;;;;;;;;;7.10;82.00;;;;;;4932059;29;20401;-65
2023/10/12 05:47:29;;;;;;;;;;;7.10;82.00;;;;;;4932513;29;20315;-75
2023/10/12 05:49:57;;;;;;;;;;;7.10;82.10;;;;;;4933003;29;19972;-75
2023/10/12 05:52:25;;;;;;;;;;;7.10;82.10;;;;;;4932505;29;19911;-75
2023/10/12 05:54:57;;;;;;;;;;;7.10;82.10;;;;;;4932590;29;19911;-75
2023/10/12 05:57:25;;;;;;;;;;;7.10;82.00;;;;;;4932056;29;19911;-74
2023/10/12 05:59:51;;;;;;;;;;;7.10;81.90;;;;;;4930058;29;20516;-75
2023/10/12 06:02:22;;;;;;;;;;;7.10;81.90;;;;;;4931088;29;19922;-75
2023/10/12 06:04:47;;;;;;;;;;;7.10;81.90;;;;;;4932041;29;19941;-73
2023/10/12 06:07:14;;;;;;;;;;;7.10;81.90;;;;;;4932172;29;20372;-75
2023/10/12 06:09:40;;;;;;;;;;;7.00;82.00;;;;;;4931794;29;20309;-74
2023/10/12 06:12:07;;;;;;;;;;;7.00;82.00;;;;;;4931944;29;19969;-74
2023/10/12 06:14:36;;;;;;;;;;;7.00;82.00;;;;;;4931993;29;19918;-74
2023/10/12 06:17:02;;;;;;;;;;;7.00;82.10;;;;;;4931874;29;19969;-74
2023/10/12 06:19:34;;;;;;;;;;;7.00;82.00;;;;;;4930459;29;19942;-75
2023/10/12 06:22:00;;;;;;;;;;;7.00;81.90;;;;;;4931934;29;19918;-74
2023/10/12 06:24:41;;;;;;;;;;;6.90;81.90;;;;;;4931657;29;19918;-74
2023/10/12 06:29:41;;;;;;;;;;;6.90;81.80;;;;;;4931753;29;19915;-75
2023/10/12 06:32:16;;;;;;;;;;;6.90;81.90;;;;;;4931644;29;19919;-75
2023/10/12 06:34:42;;;;;;;;;;;6.80;82.00;;;;;;4930151;29;20359;-76
2023/10/12 06:37:30;;;;;;;;;;;6.90;82.10;;;;;;4931419;29;19918;-76
2023/10/12 06:42:38;;;;;;;;;;;6.90;82.10;;;;;;4931418;29;19962;-68
2023/10/12 06:45:07;;;;;;;;;;;6.90;82.00;;;;;;4931063;29;19946;-75
2023/10/12 06:47:42;;;;;;;;;;;6.90;82.00;;;;;;4931334;29;19922;-76
2023/10/12 06:50:14;;;;;;;;;;;6.90;81.80;;;;;;4931186;29;20423;-75
2023/10/12 06:52:41;;;;;;;;;;;6.90;81.80;;;;;;4930998;29;20377;-75
2023/10/12 06:55:08;;;;;;;;;;;6.90;81.80;;;;;;4930823;29;19915;-75
2023/10/12 06:57:42;;;;;;;;;;;6.90;81.80;;;;;;4928959;29;19915;-75
2023/10/12 07:02:34;;;;;;;;;;;6.80;81.70;;;;;;4928098;29;19914;-74
2023/10/12 07:05:01;;;;;;;;;;;6.80;81.60;;;;;;4930781;29;19910;-75
2023/10/12 07:07:36;;;;;;;;;;;6.80;81.70;;;;;;4930653;29;20256;-76
2023/10/12 07:10:17;;;;;;;;;;;6.80;82.20;;;;;;4929518;29;19911;-78
2023/10/12 07:12:49;;;;;;;;;;;6.80;81.80;;;;;;4930002;29;19951;-76
2023/10/12 07:15:20;;;;;;;;;;;6.80;81.90;;;;;;4930068;29;19946;-76
2023/10/12 07:17:49;;;;;;;;;;;6.80;81.90;;;;;;4931144;29;20331;-78
2023/10/12 07:23:10;;;;;;;;;;;6.90;82.00;;;;;;4930467;29;19911;-75
2023/10/12 07:25:36;;;;;;;;;;;7.00;81.90;;;;;;4930203;29;19914;-74
2023/10/12 07:28:02;;;;;;;;;;;7.00;81.90;;;;;;4930558;29;19926;-75
2023/10/12 07:30:33;;;;;;;;;;;7.00;82.00;;;;;;4930494;29;20017;-75
2023/10/12 07:33:00;;;;;;;;;;;7.10;82.10;;;;;;4929158;29;20379;-76
2023/10/12 07:35:34;;;;;;;;;;;7.30;82.60;;;;;;4930407;29;19911;-76
2023/10/12 07:38:00;;;;;;;;;;;7.50;83.10;;;;;;4930218;29;20014;-76
2023/10/12 07:40:34;;;;;;;;;;;7.90;83.10;;;;;;4930345;29;20011;-75
2023/10/12 07:43:04;;;;;;;;;;;8.10;82.60;;;;;;4930274;29;20005;-74
2023/10/12 07:45:33;;;;;;;;;;;8.20;82.20;;;;;;4930144;29;19923;-75
2023/10/12 07:47:58;;;;;;;;;;;8.20;82.20;;;;;;4930478;29;20011;-75
2023/10/12 07:50:30;;;;;;;;;;;8.20;82.10;;;;;;4930368;29;19991;-75
2023/10/12 07:53:22;;;;;;;;;;;8.30;82.20;;;;;;4930571;29;19964;-75
2023/10/12 07:55:50;;;;;;;;;;;8.30;82.30;;;;;;4930442;29;19919;-75
2023/10/12 07:58:18;;;;;;;;;;;8.40;82.50;;;;;;4930158;29;19933;-75
2023/10/12 08:00:51;;;;;;;;;;;8.60;82.90;;;;;;4913163;29;19930;-75
2023/10/12 08:03:18;;;;;;;;;;;8.70;82.80;;;;;;4930168;29;20420;-75
2023/10/12 08:05:50;;;;;;;;;;;8.90;83.10;;;;;;4929310;29;19945;-75
2023/10/12 08:08:33;;;;;;;;;;;9.50;84.80;;;;;;4925519;29;19914;-74
2023/10/12 08:10:59;;;;;;;;;;;10.40;85.50;;;;;;4957015;28;20020;-75
2023/10/12 08:15:55;;;;;;;;;;;12.60;86.30;;;;;;4930567;29;19915;-74
2023/10/12 08:24:09;;;;;;;;;;;15.60;85.50;;;;;;4929530;29;19970;-74
2023/10/12 08:32:34;;;;;;;;;;;17.60;84.90;;;;;;4921055;29;19919;-76
2023/10/12 08:37:26;;;;;;;;;;;18.80;84.90;;;;;;4932921;29;19966;-76
2023/10/12 08:44:59;;;;;;;;;;;20.40;85.20;;;;;;4932411;29;19918;-75
2023/10/12 08:52:30;;;;;;;;;;;21.60;85.70;;;;;;4932067;29;19914;-76
2023/10/12 08:55:03;;;;;;;;;;;22.00;85.90;;;;;;4932334;29;19914;-75
2023/10/12 08:57:35;;;;;;;;;;;22.40;86.10;;;;;;4930153;29;20410;-76
2023/10/12 09:00:38;;;;;;;;;;;22.90;86.20;;;;;;4933534;29;19919;-77
2023/10/12 09:03:13;;;;;;;;;;;23.30;86.20;;;;;;4932995;29;19962;-74
2023/10/12 09:05:39;;;;;;;;;;;23.60;86.40;;;;;;4931033;29;20359;-73
2023/10/12 09:10:51;;;;;;;;;;;23.50;87.20;;;;;;4931480;29;19911;-73
2023/10/12 09:13:21;;;;;;;;;;;23.80;87.80;;;;;;4930290;29;19929;-73
2023/10/12 09:15:54;;;;;;;;;;;24.20;87.70;;;;;;4930913;29;19911;-72
2023/10/12 09:18:21;;;;;;;;;;;24.60;87.40;;;;;;4928488;29;19989;-72
2023/10/12 09:21:39;;;;;;;;;;;25.00;87.00;;;;;;4931072;29;19919;-72
2023/10/12 09:29:03;;;;;;;;;;;25.70;86.10;;;;;;4931459;29;20300;-73
2023/10/12 09:36:29;;;;;;;;;;;26.40;86.90;;;;;;4931719;29;20024;-74
2023/10/12 09:39:00;;;;;;;;;;;26.60;87.30;;;;;;4931408;29;20033;-75
2023/10/12 09:41:29;;;;;;;;;;;26.80;87.50;;;;;;4932308;29;19923;-74
2023/10/12 09:43:58;;;;;;;;;;;27.10;87.70;;;;;;4932025;29;19982;-74
2023/10/12 09:46:27;;;;;;;;;;;27.30;88.00;;;;;;4932129;29;20006;-75
2023/10/12 09:49:06;;;;;;;;;;;27.60;87.90;;;;;;4931977;29;19950;-74
2023/10/12 09:51:45;;;;;;;;;;;27.80;87.70;;;;;;4931294;29;19914;-75
2023/10/12 09:54:18;;;;;;;;;;;27.80;88.30;;;;;;4932312;29;19911;-75
2023/10/12 09:56:46;;;;;;;;;;;27.90;88.60;;;;;;4931073;29;19919;-77
2023/10/12 09:59:18;;;;;;;;;;;28.00;89.00;;;;;;4932256;29;19926;-74
2023/10/12 10:01:50;;;;;;;;;;;27.90;89.20;;;;;;4932155;29;19921;-71
2023/10/12 10:06:53;;;;;;;;;;;28.00;89.70;;;;;;4932486;29;19914;-70
2023/10/12 10:09:37;;;;;;;;;;;27.90;90.00;;;;;;4932303;29;19946;-73
2023/10/12 10:12:05;;;;;;;;;;;28.10;90.20;;;;;;4931719;29;19911;-73
2023/10/12 10:14:34;;;;;;;;;;;28.20;90.10;;;;;;4930424;29;19914;-73
2023/10/12 10:17:01;;;;;;;;;;;28.30;90.10;;;;;;4931749;29;19926;-73
2023/10/12 10:19:30;;;;;;;;;;;28.30;90.20;;;;;;4930071;29;20410;-72
2023/10/12 10:22:06;;;;;;;;;;;28.50;90.30;;;;;;4932095;29;19919;-71
2023/10/12 10:24:43;;;;;;;;;;;28.60;90.40;;;;;;4931845;29;19914;-75
2023/10/12 10:27:15;;;;;;;;;;;28.80;90.40;;;;;;4932114;29;19911;-74
2023/10/12 10:29:53;;;;;;;;;;;29.30;90.30;;;;;;4931629;29;19910;-73
2023/10/12 10:32:36;;;;;;;;;;;29.60;90.10;;;;;;4931641;29;19921;-72
2023/10/12 10:35:24;;;;;;;;;;;29.60;89.80;;;;;;4931915;29;19962;-70
2023/10/12 10:37:58;;;;;;;;;;;29.30;90.00;;;;;;4931243;29;19911;-73
2023/10/12 10:40:44;;;;;;;;;;;28.90;90.20;;;;;;4931319;29;19930;-72
2023/10/12 10:43:14;;;;;;;;;;;28.80;90.50;;;;;;4932010;29;19978;-73
2023/10/12 10:45:42;;;;;;;;;;;29.20;90.70;;;;;;4930889;29;20351;-72
2023/10/12 10:48:13;;;;;;;;;;;29.30;90.40;;;;;;4931177;29;20326;-72
2023/10/12 10:50:49;;;;;;;;;;;29.10;90.40;;;;;;4931673;29;20976;-73
2023/10/12 10:53:15;;;;;;;;;;;29.20;90.70;;;;;;4931695;29;19925;-74
2023/10/12 10:55:41;;;;;;;;;;;29.50;90.60;;;;;;4930031;29;19911;-73
2023/10/12 10:58:07;;;;;;;;;;;29.60;90.30;;;;;;4931070;29;19926;-71
2023/10/12 11:00:37;;;;;;;;;;;29.70;90.20;;;;;;4930728;29;20058;-73
2023/10/12 11:03:06;;;;;;;;;;;29.70;90.20;;;;;;4931100;29;19946;-73
2023/10/12 11:05:33;;;;;;;;;;;29.60;89.90;;;;;;4931117;29;19976;-73
2023/10/12 11:08:19;;;;;;;;;;;29.20;90.10;;;;;;4929509;29;20280;-71
2023/10/12 11:13:31;;;;;;;;;;;28.90;90.40;;;;;;4930423;29;19977;-76
2023/10/12 11:16:20;;;;;;;;;;;28.90;90.60;;;;;;4930104;29;19911;-76
2023/10/12 11:18:54;;;;;;;;;;;29.10;90.60;;;;;;4929645;29;19962;-78
2023/10/12 11:21:20;;;;;;;;;;;29.30;90.70;;;;;;4931213;29;19922;-74
2023/10/12 11:23:46;;;;;;;;;;;29.40;90.60;;;;;;4931092;29;20290;-75
2023/10/12 11:26:17;;;;;;;;;;;29.50;90.30;;;;;;4961884;28;19919;-73
2023/10/12 11:28:48;;;;;;;;;;;29.50;90.20;;;;;;4931210;29;20005;-76
2023/10/12 11:31:32;;;;;;;;;;;29.40;90.20;;;;;;4931018;29;19946;-72
2023/10/12 11:33:58;;;;;;;;;;;29.30;90.20;;;;;;4931088;29;19915;-76
2023/10/12 11:36:24;;;;;;;;;;;29.30;90.10;;;;;;4931583;29;19915;-75
2023/10/12 11:39:00;;;;;;;;;;;29.30;90.20;;;;;;4931616;29;20009;-77
2023/10/12 11:41:27;;;;;;;;;;;29.30;90.10;;;;;;4931681;29;19914;-77
2023/10/12 11:43:53;;;;;;;;;;;29.20;89.30;;;;;;4930611;29;19911;-75
2023/10/12 11:46:19;;;;;;;;;;;28.60;88.40;;;;;;4931077;29;20381;-76
2023/10/12 11:48:59;;;;;;;;;;;27.60;86.90;;;;;;4931403;29;19997;-80
2023/10/12 11:51:24;;;;;;;;;;;26.60;86.40;;;;;;4930993;29;19911;-74
2023/10/12 11:53:53;;;;;;;;;;;25.80;86.50;;;;;;4929073;29;19915;-75
2023/10/12 11:56:22;;;;;;;;;;;25.20;86.60;;;;;;4930795;29;19954;-74
2023/10/12 11:58:54;;;;;;;;;;;24.70;86.40;;;;;;4932634;29;19931;-74
2023/10/12 12:01:21;;;;;;;;;;;24.30;86.90;;;;;;4935318;29;19915;-78
2023/10/12 12:03:48;;;;;;;;;;;23.90;86.70;;;;;;4935655;29;20550;-74
2023/10/12 12:06:22;;;;;;;;;;;23.60;86.80;;;;;;4934808;29;20294;-73
2023/10/12 12:08:49;;;;;;;;;;;23.30;86.50;;;;;;4934334;29;19930;-72
2023/10/12 12:11:19;;;;;;;;;;;23.10;86.60;;;;;;4933803;29;19911;-74
2023/10/12 12:13:48;;;;;;;;;;;23.00;86.60;;;;;;4930924;29;19946;-74
2023/10/12 12:16:20;;;;;;;;;;;22.90;86.20;;;;;;4924490;29;19933;-72
2023/10/12 12:18:52;;;;;;;;;;;22.80;86.40;;;;;;4916559;29;19918;-76
2023/10/12 12:21:29;;;;;;;;;;;22.70;86.40;;;;;;4933813;29;20450;-73
2023/10/12 12:24:14;;;;;;;;;;;22.70;86.50;;;;;;4928124;29;19918;-73
2023/10/12 12:26:44;;;;;;;;;;;22.60;86.60;;;;;;4932282;29;19919;-74
2023/10/12 12:29:11;;;;;;;;;;;22.70;86.60;;;;;;4931005;29;19922;-74
2023/10/12 12:31:40;;;;;;;;;;;22.90;87.10;;;;;;4920435;29;19941;-75
2023/10/12 12:34:06;;;;;;;;;;;23.20;87.90;;;;;;4934564;29;19921;-75
2023/10/12 12:36:32;;;;;;;;;;;23.40;87.00;;;;;;4934112;29;20005;-78
2023/10/12 12:38:59;;;;;;;;;;;23.50;87.20;;;;;;4934246;29;19964;-75
2023/10/12 12:41:24;;;;;;;;;;;23.50;87.10;;;;;;4934190;29;20021;-72
2023/10/12 12:43:50;;;;;;;;;;;23.30;86.70;;;;;;4932305;29;19994;-72
2023/10/12 12:46:17;;;;;;;;;;;23.20;86.60;;;;;;4933583;29;19977;-76
2023/10/12 12:48:45;;;;;;;;;;;23.10;86.80;;;;;;4934000;29;19915;-73
2023/10/12 12:51:18;;;;;;;;;;;23.10;86.70;;;;;;4933151;29;19944;-76
2023/10/12 12:53:47;;;;;;;;;;;23.00;86.30;;;;;;4934980;29;19974;-76
2023/10/12 12:56:14;;;;;;;;;;;22.80;86.10;;;;;;4934816;29;20028;-75
2023/10/12 12:58:46;;;;;;;;;;;22.70;86.00;;;;;;4932051;29;20002;-75
2023/10/12 13:01:18;;;;;;;;;;;22.50;85.60;;;;;;4933769;29;19930;-75
2023/10/12 13:03:44;;;;;;;;;;;22.30;85.70;;;;;;4932172;29;19910;-75
2023/10/12 13:06:11;;;;;;;;;;;22.30;86.10;;;;;;4933559;29;19915;-75
2023/10/12 13:08:37;;;;;;;;;;;22.20;86.10;;;;;;4932373;29;20002;-72
2023/10/12 13:11:06;;;;;;;;;;;22.10;86.10;;;;;;4933339;29;19944;-72
2023/10/12 13:13:33;;;;;;;;;;;22.10;86.20;;;;;;4933308;29;20002;-72
2023/10/12 13:16:00;;;;;;;;;;;22.10;86.70;;;;;;4933645;29;19949;-74
2023/10/12 13:18:29;;;;;;;;;;;22.30;86.90;;;;;;4932130;29;19919;-74
2023/10/12 13:20:57;;;;;;;;;;;22.40;86.10;;;;;;4932779;29;19929;-74
2023/10/12 13:23:23;;;;;;;;;;;22.10;85.10;;;;;;4932878;29;20287;-73
2023/10/12 13:25:49;;;;;;;;;;;21.50;84.50;;;;;;4932767;29;20368;-73
2023/10/12 13:28:14;;;;;;;;;;;21.10;84.80;;;;;;4933183;29;19915;-73
2023/10/12 13:30:40;;;;;;;;;;;20.80;85.00;;;;;;4932985;29;20378;-72
2023/10/12 13:33:09;;;;;;;;;;;20.70;85.30;;;;;;4932839;29;19946;-73
2023/10/12 13:38:09;;;;;;;;;;;20.50;84.80;;;;;;4933082;29;20025;-76
2023/10/12 13:40:43;;;;;;;;;;;20.30;84.70;;;;;;4930293;29;19962;-73
2023/10/12 13:43:15;;;;;;;;;;;20.10;84.40;;;;;;4933074;29;19936;-72
2023/10/12 13:45:47;;;;;;;;;;;19.90;84.40;;;;;;4932247;29;19919;-73
2023/10/12 13:48:14;;;;;;;;;;;19.80;84.40;;;;;;4933049;29;20006;-73
2023/10/12 13:50:39;;;;;;;;;;;19.70;84.20;;;;;;4932793;29;19954;-73
2023/10/12 13:53:05;;;;;;;;;;;19.60;83.80;;;;;;4933213;29;19954;-81
2023/10/12 13:55:32;;;;;;;;;;;19.40;83.50;;;;;;4966041;28;19962;-82
2023/10/12 13:57:58;;;;;;;;;;;19.20;83.50;;;;;;4947588;28;19923;-77
2023/10/12 14:00:26;;;;;;;;;;;19.10;83.80;;;;;;4934435;29;20065;-78
2023/10/12 14:02:56;;;;;;;;;;;19.00;83.70;;;;;;4931835;29;19953;-76
2023/10/12 14:05:25;;;;;;;;;;;18.90;83.70;;;;;;4933110;29;19910;-77
2023/10/12 14:08:00;;;;;;;;;;;18.80;83.70;;;;;;4933264;29;20356;-77
2023/10/12 14:10:29;;;;;;;;;;;18.70;83.80;;;;;;4932364;29;19915;-77
2023/10/12 14:12:55;;;;;;;;;;;18.60;83.90;;;;;;4932249;29;19911;-76
2023/10/12 14:15:22;;;;;;;;;;;18.70;84.10;;;;;;4932633;29;19911;-75
2023/10/12 14:17:54;;;;;;;;;;;18.80;84.10;;;;;;4931704;29;20479;-77
2023/10/12 14:20:28;;;;;;;;;;;18.80;83.70;;;;;;4932404;29;19923;-78
2023/10/12 14:22:57;;;;;;;;;;;18.70;83.30;;;;;;4932848;29;19918;-77
2023/10/12 14:25:30;;;;;;;;;;;18.70;83.40;;;;;;4932582;29;19922;-76
2023/10/12 14:27:59;;;;;;;;;;;18.70;83.50;;;;;;4932790;29;19958;-75
2023/10/12 14:30:28;;;;;;;;;;;18.80;83.60;;;;;;4931390;29;19915;-76
2023/10/12 14:33:03;;;;;;;;;;;18.90;83.60;;;;;;4931200;29;20004;-77
2023/10/12 14:35:29;;;;;;;;;;;18.90;83.30;;;;;;4930947;29;19910;-77
2023/10/12 14:37:57;;;;;;;;;;;18.90;83.40;;;;;;4931595;29;20077;-78
2023/10/12 14:40:32;;;;;;;;;;;18.90;83.30;;;;;;4932631;29;20032;-77
2023/10/12 14:43:05;;;;;;;;;;;18.80;83.20;;;;;;4932804;29;19911;-76
2023/10/12 14:45:36;;;;;;;;;;;18.70;82.90;;;;;;4931459;29;20364;-71
2023/10/12 14:48:09;;;;;;;;;;;18.70;82.90;;;;;;4928049;29;19915;-71
2023/10/12 14:50:38;;;;;;;;;;;18.60;82.90;;;;;;4930308;29;19922;-71
2023/10/12 14:53:05;;;;;;;;;;;18.50;82.90;;;;;;4923551;29;19911;-72
2023/10/12 14:55:31;;;;;;;;;;;18.40;82.90;;;;;;4912814;29;20393;-71
2023/10/12 14:57:56;;;;;;;;;;;18.30;82.90;;;;;;4912474;29;19931;-70
2023/10/12 15:00:22;;;;;;;;;;;18.30;82.80;;;;;;4912474;29;19923;-75
2023/10/12 15:02:51;;;;;;;;;;;18.20;82.90;;;;;;4913965;29;19923;-72
2023/10/12 15:05:17;;;;;;;;;;;18.20;83.00;;;;;;4939153;29;20356;-72
2023/10/12 15:07:42;;;;;;;;;;;18.10;82.90;;;;;;4912435;29;19998;-71
2023/10/12 15:10:08;;;;;;;;;;;18.10;83.00;;;;;;4912301;29;19923;-72
2023/10/12 15:12:34;;;;;;;;;;;17.90;83.00;;;;;;4912234;29;19915;-72
2023/10/12 15:15:01;;;;;;;;;;;17.90;83.10;;;;;;4912307;29;20040;-73
2023/10/12 15:17:27;;;;;;;;;;;17.90;83.20;;;;;;4912125;29;19917;-69
2023/10/12 15:19:53;;;;;;;;;;;17.90;83.10;;;;;;4912478;29;19925;-69
2023/10/12 15:22:19;;;;;;;;;;;17.80;83.00;;;;;;4912299;29;20013;-70
2023/10/12 15:24:44;;;;;;;;;;;17.80;82.80;;;;;;4911871;29;19919;-69
2023/10/12 15:27:10;;;;;;;;;;;17.70;82.70;;;;;;4911942;29;19916;-69
2023/10/12 15:29:37;;;;;;;;;;;17.70;82.90;;;;;;4912374;29;20400;-69
2023/10/12 15:32:03;;;;;;;;;;;17.70;83.00;;;;;;4910491;29;20516;-72
2023/10/12 15:34:31;;;;;;;;;;;17.70;83.00;;;;;;4912191;29;19981;-71
2023/10/12 15:36:58;;;;;;;;;;;17.60;82.90;;;;;;4912296;29;20002;-72
2023/10/12 15:39:26;;;;;;;;;;;17.50;82.80;;;;;;4912012;29;19926;-71
2023/10/12 15:41:52;;;;;;;;;;;17.50;82.80;;;;;;4912224;29;20371;-74
2023/10/12 15:44:18;;;;;;;;;;;17.50;82.80;;;;;;4911876;29;19911;-72
2023/10/12 15:46:44;;;;;;;;;;;17.50;82.80;;;;;;4911155;29;20455;-72
2023/10/12 15:49:10;;;;;;;;;;;17.50;82.80;;;;;;4910956;29;19942;-74
2023/10/12 15:51:36;;;;;;;;;;;17.40;82.70;;;;;;4909549;29;19915;-71
2023/10/12 15:54:05;;;;;;;;;;;17.40;82.90;;;;;;4910889;29;20360;-72
2023/10/12 15:56:31;;;;;;;;;;;17.40;82.80;;;;;;4912028;29;19918;-72
2023/10/12 15:58:57;;;;;;;;;;;17.40;82.70;;;;;;4912110;29;20295;-74
2023/10/12 16:01:22;;;;;;;;;;;17.30;82.60;;;;;;4912147;29;19915;-72
2023/10/12 16:03:48;;;;;;;;;;;17.30;82.60;;;;;;4911412;29;20002;-71
2023/10/12 16:06:14;;;;;;;;;;;17.30;82.60;;;;;;4911668;29;19926;-71
2023/10/12 16:08:40;;;;;;;;;;;17.30;82.60;;;;;;4912662;29;19923;-71
2023/10/12 16:11:05;;;;;;;;;;;17.30;82.80;;;;;;4912301;29;19963;-70
2023/10/12 16:13:34;;;;;;;;;;;17.20;82.80;;;;;;4912026;29;19942;-70
2023/10/12 16:16:12;;;;;;;;;;;17.20;82.70;;;;;;4911716;29;19934;-70
2023/10/12 16:18:41;;;;;;;;;;;17.30;82.70;;;;;;4911653;29;19971;-71
2023/10/12 16:21:15;;;;;;;;;;;17.20;82.70;;;;;;4911361;29;20291;-71
2023/10/12 16:23:42;;;;;;;;;;;17.20;82.70;;;;;;4931047;29;19911;-73
2023/10/12 16:26:12;;;;;;;;;;;17.20;82.60;;;;;;4930920;29;19953;-72